createdAt,value
2018-02-21T00:07:41.832Z,-0.57
2018-02-21T00:17:41.874Z,-0.77
2018-02-21T00:27:41.886Z,-0.7
2018-02-21T00:37:41.896Z,-0.89
2018-02-21T00:47:41.857Z,-0.92
2018-02-21T00:57:42.023Z,-1.12
2018-02-21T01:07:41.876Z,-1.13
2018-02-21T01:17:41.867Z,-1.25
2018-02-21T01:27:41.917Z,-1.23
2018-02-21T01:37:41.888Z,-1.38
2018-02-21T01:47:41.953Z,-1.64
2018-02-21T01:57:41.901Z,-1.46
2018-02-21T02:07:41.972Z,-1.39
2018-02-21T02:17:41.925Z,-1.36
2018-02-21T02:27:41.978Z,-1.42
2018-02-21T02:37:41.981Z,-1.43
2018-02-21T02:47:41.942Z,-1.24
2018-02-21T02:57:41.965Z,-1.12
2018-02-21T03:07:41.970Z,-1.07
2018-02-21T03:17:42.023Z,-1.06
2018-02-21T03:27:41.993Z,-1.05
2018-02-21T03:37:42.022Z,-1.03
2018-02-21T03:47:41.989Z,-1.2
2018-02-21T03:57:42.101Z,-1.31
2018-02-21T04:07:42.004Z,-1.38
2018-02-21T04:17:42.075Z,-1.42
2018-02-21T04:27:42.027Z,-1.38
2018-02-21T04:37:41.985Z,-1.75
2018-02-21T04:47:42.039Z,-1.8
2018-02-21T04:57:42.036Z,-2
2018-02-21T05:07:42.090Z,-2.11
2018-02-21T05:17:42.054Z,-2.14
2018-02-21T05:27:42.106Z,-2.14
2018-02-21T05:37:42.083Z,-2.29
2018-02-21T05:47:42.026Z,-2.29
2018-02-21T05:57:42.077Z,-2.2
2018-02-21T06:07:42.134Z,-2.11
2018-02-21T06:17:42.119Z,-1.99
2018-02-21T06:27:42.058Z,-1.92
2018-02-21T06:37:42.160Z,-1.88
2018-02-21T06:47:42.144Z,-2.14
2018-02-21T06:57:42.173Z,-2.18
2018-02-21T07:07:42.179Z,-1.99
2018-02-21T07:17:42.183Z,-1.81
2018-02-21T07:27:42.181Z,-1.81
2018-02-21T07:37:42.103Z,-1.36
2018-02-21T07:47:42.158Z,-1.38
2018-02-21T07:57:42.136Z,-1.2
2018-02-21T08:07:42.181Z,-0.94
2018-02-21T08:17:42.151Z,-0.55
2018-02-21T08:27:42.222Z,-0.42
2018-02-21T08:37:42.176Z,-0.05
2018-02-21T08:47:42.264Z,0.3
2018-02-21T08:57:42.233Z,0.78
2018-02-21T09:07:42.161Z,0.82
2018-02-21T09:17:42.258Z,1.19
2018-02-21T09:27:42.178Z,1.43
2018-02-21T09:37:42.223Z,1.76
2018-02-21T09:47:42.219Z,2.08
2018-02-21T09:57:42.283Z,2.19
2018-02-21T10:07:42.243Z,2.58
2018-02-21T10:17:42.309Z,2.77
2018-02-21T10:27:42.253Z,3.02
2018-02-21T10:37:42.314Z,3.21
2018-02-21T10:47:42.313Z,3.3
2018-02-21T10:57:42.332Z,3.49
2018-02-21T11:07:42.285Z,3.89
2018-02-21T11:17:42.274Z,3.89
2018-02-21T11:27:42.307Z,4.04
2018-02-21T11:37:42.284Z,4.24
2018-02-21T11:47:42.363Z,4.44
2018-02-21T11:57:42.357Z,4.7
2018-02-21T12:07:42.358Z,4.92
2018-02-21T12:17:42.322Z,5.25
2018-02-21T12:27:42.371Z,5.32
2018-02-21T12:37:42.355Z,5.77
2018-02-21T12:47:42.423Z,5.5
2018-02-21T12:57:42.384Z,5.59
2018-02-21T13:07:42.490Z,5.32
2018-02-21T13:17:42.454Z,5.3
2018-02-21T13:27:42.369Z,5.16
2018-02-21T13:37:42.405Z,5.2
2018-02-21T13:47:42.398Z,5.2
2018-02-21T13:57:42.421Z,5.13
2018-02-21T14:07:42.384Z,5.28
2018-02-21T14:17:42.511Z,5.19
2018-02-21T14:27:42.408Z,5.02
2018-02-21T14:37:42.490Z,4.99
2018-02-21T14:47:42.451Z,4.86
2018-02-21T14:57:42.511Z,4.7
2018-02-21T15:07:42.480Z,4.52
2018-02-21T15:17:42.548Z,4.33
2018-02-21T15:27:42.524Z,4.24
2018-02-21T15:37:42.614Z,4.34
2018-02-21T15:47:42.551Z,4.42
2018-02-21T15:57:42.637Z,4.26
2018-02-21T16:07:42.563Z,4.18
2018-02-21T16:17:42.596Z,3.97
2018-02-21T16:27:42.578Z,3.85
2018-02-21T16:37:42.546Z,3.58
2018-02-21T16:47:42.613Z,3.5
2018-02-21T16:57:42.601Z,3.07
2018-02-21T17:07:42.724Z,2.91
2018-02-21T17:17:42.686Z,2.64
2018-02-21T17:27:42.593Z,2.35
2018-02-21T17:37:42.706Z,2.3
2018-02-21T17:47:42.549Z,2.1
2018-02-21T17:57:42.651Z,1.71
2018-02-21T18:07:43.170Z,1.46
2018-02-21T18:17:42.668Z,1.07
2018-02-21T18:27:42.611Z,0.96
2018-02-21T18:37:42.723Z,1
2018-02-21T18:47:42.638Z,0.85
2018-02-21T18:57:42.577Z,0.71
2018-02-21T19:07:42.648Z,0.57
2018-02-21T19:17:42.654Z,0.51
2018-02-21T19:27:42.585Z,0.41
2018-02-21T19:37:42.946Z,0.39
2018-02-21T19:47:42.854Z,0.39
2018-02-21T19:57:42.675Z,0.2
2018-02-21T20:07:42.727Z,0.21
2018-02-21T20:17:42.706Z,0.07
2018-02-21T20:27:42.760Z,-0.05
2018-02-21T20:37:42.769Z,-0.08
2018-02-21T20:47:42.805Z,-0.19
2018-02-21T20:57:42.751Z,-0.24
2018-02-21T21:07:42.737Z,-0.44
2018-02-21T21:17:42.882Z,-0.3
2018-02-21T21:27:42.834Z,-0.36
2018-02-21T21:37:42.780Z,-0.51
2018-02-21T21:47:42.728Z,-0.6
2018-02-21T21:57:42.898Z,-0.57
2018-02-21T22:07:42.754Z,-0.7
2018-02-21T22:17:42.746Z,-0.83
2018-02-21T22:27:42.761Z,-0.91
2018-02-21T22:37:42.853Z,-1.09
2018-02-21T22:49:10.743Z,-1.02
2018-02-21T22:59:10.684Z,-1.03
2018-02-21T23:09:10.978Z,-1.24
2018-02-21T23:19:10.734Z,-1.02
2018-02-21T23:29:10.725Z,-1.1
2018-02-21T23:39:10.682Z,-1.09
2018-02-21T23:49:10.718Z,-1.13
2018-02-21T23:59:10.715Z,-1.25
